createdAt,value
2019-02-26T00:05:12.235Z,11.03
2019-02-26T00:07:51.579Z,10.53
2019-02-26T00:16:39.972Z,9.88
2019-02-26T00:19:21.334Z,9.73
2019-02-26T00:22:02.769Z,9.20
2019-02-26T00:24:44.404Z,11.10
2019-02-26T00:27:28.195Z,10.23
2019-02-26T00:30:09.622Z,10.05
2019-02-26T00:32:53.109Z,9.70
2019-02-26T00:35:33.956Z,9.38
2019-02-26T00:38:17.270Z,9.48
2019-02-26T00:40:59.992Z,9.75
2019-02-26T00:43:41.484Z,9.78
2019-02-26T00:46:24.216Z,9.93
2019-02-26T00:49:07.486Z,10.68
2019-02-26T00:51:49.073Z,9.85
2019-02-26T00:54:31.835Z,10.38
2019-02-26T00:57:14.001Z,9.70
2019-02-26T00:59:55.158Z,10.20
2019-02-26T01:02:34.890Z,9.53
2019-02-26T01:05:23.932Z,9.28
2019-02-26T01:08:15.110Z,9.55
2019-02-26T01:11:19.293Z,10.40
2019-02-26T01:13:55.205Z,10.13
2019-02-26T01:16:37.147Z,10.30
2019-02-26T01:19:19.850Z,9.20
2019-02-26T01:22:01.482Z,10.78
2019-02-26T01:24:43.014Z,9.48
2019-02-26T01:27:24.352Z,10.15
2019-02-26T01:30:05.812Z,10.03
2019-02-26T01:32:47.234Z,9.75
2019-02-26T01:35:30.573Z,9.65
2019-02-26T01:38:12.609Z,10.28
2019-02-26T01:40:55.882Z,10.45
2019-02-26T01:43:36.303Z,10.10
2019-02-26T01:46:18.789Z,11.18
2019-02-26T01:48:59.904Z,10.68
2019-02-26T01:51:43.309Z,9.65
2019-02-26T01:54:25.290Z,9.65
2019-02-26T01:57:08.648Z,11.10
2019-02-26T01:59:50.239Z,10.10
2019-02-26T02:02:32.107Z,11.25
2019-02-26T02:05:12.880Z,10.58
2019-02-26T02:07:54.097Z,11.35
2019-02-26T02:10:36.882Z,10.95
2019-02-26T02:13:17.701Z,9.95
2019-02-26T02:15:59.717Z,10.60
2019-02-26T02:18:46.037Z,10.60
2019-02-26T02:21:26.001Z,11.95
2019-02-26T02:24:10.746Z,10.78
2019-02-26T02:26:53.545Z,11.90
2019-02-26T02:29:34.592Z,10.70
2019-02-26T02:32:15.940Z,10.95
2019-02-26T02:35:00.525Z,11.43
2019-02-26T02:37:39.954Z,10.70
2019-02-26T02:40:21.826Z,11.70
2019-02-26T02:43:04.479Z,12.33
2019-02-26T02:45:47.488Z,12.10
2019-02-26T02:48:28.254Z,12.58
2019-02-26T02:51:13.136Z,12.65
2019-02-26T02:53:54.099Z,10.50
2019-02-26T02:56:36.998Z,10.85
2019-02-26T02:59:18.336Z,11.15
2019-02-26T03:01:59.719Z,10.25
2019-02-26T03:04:41.252Z,11.30
2019-02-26T03:07:23.679Z,10.75
2019-02-26T03:10:06.762Z,12.25
2019-02-26T03:12:51.425Z,11.95
2019-02-26T03:15:35.204Z,10.50
2019-02-26T03:18:14.874Z,11.68
2019-02-26T03:20:56.612Z,11.65
2019-02-26T03:23:45.607Z,12.03
2019-02-26T03:26:35.782Z,10.63
2019-02-26T03:29:24.356Z,10.93
2019-02-26T03:32:12.973Z,13.60
2019-02-26T03:35:04.763Z,11.97
2019-02-26T03:38:03.905Z,13.10
2019-02-26T03:40:42.548Z,11.40
2019-02-26T03:43:32.205Z,11.95
2019-02-26T03:49:32.438Z,11.80
2019-02-26T03:52:15.362Z,13.15
2019-02-26T03:55:03.510Z,12.55
2019-02-26T03:57:54.309Z,11.53
2019-02-26T04:00:43.653Z,12.60
2019-02-26T04:03:32.586Z,13.35
2019-02-26T04:09:21.959Z,12.68
2019-02-26T04:15:00.379Z,12.25
2019-02-26T04:17:42.269Z,12.40
2019-02-26T04:20:26.958Z,12.37
2019-02-26T04:23:08.406Z,12.07
2019-02-26T04:25:51.502Z,12.03
2019-02-26T04:28:33.453Z,12.73
2019-02-26T04:31:14.901Z,13.32
2019-02-26T04:33:56.798Z,13.60
2019-02-26T04:36:41.623Z,13.58
2019-02-26T04:39:22.337Z,12.37
2019-02-26T04:42:05.440Z,12.10
2019-02-26T04:44:50.042Z,12.23
2019-02-26T04:47:33.443Z,11.93
2019-02-26T04:50:12.247Z,11.70
2019-02-26T04:52:55.391Z,13.55
2019-02-26T04:55:38.236Z,12.15
2019-02-26T04:58:20.245Z,12.43
2019-02-26T05:01:01.195Z,12.88
2019-02-26T05:03:42.463Z,11.53
2019-02-26T05:06:23.296Z,11.93
2019-02-26T05:09:05.700Z,12.23
2019-02-26T05:11:47.765Z,12.35
2019-02-26T05:14:28.977Z,13.88
2019-02-26T05:17:10.480Z,12.10
2019-02-26T05:19:51.969Z,12.50
2019-02-26T05:22:33.703Z,13.30
2019-02-26T05:25:17.635Z,12.47
2019-02-26T05:27:57.995Z,12.88
2019-02-26T05:30:40.416Z,12.65
2019-02-26T05:33:24.730Z,13.68
2019-02-26T05:36:06.149Z,11.60
2019-02-26T05:38:49.141Z,12.28
2019-02-26T05:41:29.890Z,11.73
2019-02-26T05:44:11.317Z,12.30
2019-02-26T05:46:56.112Z,12.37
2019-02-26T05:49:38.431Z,13.18
2019-02-26T05:52:21.435Z,13.03
2019-02-26T05:55:01.956Z,13.90
2019-02-26T05:57:42.789Z,13.22
2019-02-26T06:00:26.277Z,13.80
2019-02-26T06:03:09.668Z,15.85
2019-02-26T06:05:51.971Z,14.05
2019-02-26T06:08:35.832Z,12.55
2019-02-26T06:11:17.080Z,13.00
2019-02-26T06:14:00.868Z,14.15
2019-02-26T06:16:40.771Z,14.60
2019-02-26T06:19:21.875Z,13.43
2019-02-26T06:22:03.378Z,13.60
2019-02-26T06:24:44.951Z,15.48
2019-02-26T06:27:27.324Z,17.45
2019-02-26T06:30:11.561Z,16.02
2019-02-26T06:32:51.054Z,14.33
2019-02-26T06:35:33.758Z,14.98
2019-02-26T06:38:15.662Z,16.67
2019-02-26T06:40:56.407Z,14.23
2019-02-26T06:43:40.000Z,14.73
2019-02-26T06:46:20.626Z,13.95
2019-02-26T06:49:02.299Z,14.45
2019-02-26T06:51:45.083Z,13.15
2019-02-26T06:54:27.144Z,12.13
2019-02-26T06:57:09.992Z,14.55
2019-02-26T06:59:53.167Z,13.58
2019-02-26T07:02:32.820Z,13.70
2019-02-26T07:05:35.351Z,14.25
2019-02-26T07:08:12.500Z,15.60
2019-02-26T07:13:58.840Z,13.62
2019-02-26T07:16:40.488Z,13.30
2019-02-26T07:19:21.273Z,13.10
2019-02-26T07:22:02.855Z,13.18
2019-02-26T07:24:46.235Z,13.80
2019-02-26T07:27:28.699Z,13.13
2019-02-26T07:30:09.927Z,14.60
2019-02-26T07:32:50.905Z,14.83
2019-02-26T07:35:33.288Z,15.48
2019-02-26T07:38:16.181Z,14.70
2019-02-26T07:41:00.830Z,17.87
2019-02-26T07:43:43.462Z,17.50
2019-02-26T07:46:23.748Z,17.10
2019-02-26T07:49:07.335Z,15.55
2019-02-26T07:51:47.824Z,16.45
2019-02-26T07:54:29.448Z,16.73
2019-02-26T07:57:09.182Z,17.12
2019-02-26T07:59:57.869Z,19.02
2019-02-26T08:02:47.072Z,20.27
2019-02-26T08:05:35.760Z,20.57
2019-02-26T08:11:32.328Z,17.20
2019-02-26T08:14:21.494Z,17.55
2019-02-26T08:17:04.484Z,17.92
2019-02-26T08:19:49.109Z,19.42
2019-02-26T08:22:31.794Z,20.12
2019-02-26T08:25:11.944Z,21.82
2019-02-26T08:27:53.953Z,22.42
2019-02-26T08:30:35.426Z,19.92
2019-02-26T08:33:16.639Z,21.65
2019-02-26T08:35:56.619Z,22.17
2019-02-26T08:42:13.445Z,21.73
2019-02-26T08:45:02.504Z,21.60
2019-02-26T08:47:51.335Z,21.15
2019-02-26T08:50:42.275Z,18.95
2019-02-26T08:56:41.009Z,18.62
2019-02-26T08:59:30.782Z,19.07
2019-02-26T09:02:19.877Z,19.52
2019-02-26T09:05:20.426Z,18.52
2019-02-26T09:07:59.057Z,18.52
2019-02-26T09:16:49.789Z,18.90
2019-02-26T09:19:30.233Z,18.52
2019-02-26T09:22:14.176Z,19.12
2019-02-26T09:24:56.826Z,18.55
2019-02-26T09:27:42.728Z,18.92
2019-02-26T09:30:21.762Z,20.43
2019-02-26T09:33:03.474Z,18.65
2019-02-26T09:35:46.993Z,20.95
2019-02-26T09:38:27.590Z,18.48
2019-02-26T09:41:10.035Z,18.50
2019-02-26T09:43:51.797Z,18.27
2019-02-26T09:46:35.794Z,19.23
2019-02-26T09:49:15.195Z,18.15
2019-02-26T09:51:56.839Z,18.80
2019-02-26T09:54:42.685Z,18.73
2019-02-26T09:57:23.329Z,18.73
2019-02-26T10:00:05.410Z,17.35
2019-02-26T10:02:47.532Z,19.52
2019-02-26T10:05:29.439Z,19.17
2019-02-26T10:08:10.211Z,20.92
2019-02-26T10:10:52.591Z,23.50
2019-02-26T10:13:33.994Z,21.73
2019-02-26T10:16:14.868Z,19.10
2019-02-26T10:18:56.747Z,17.95
2019-02-26T10:21:39.834Z,18.73
2019-02-26T10:24:22.960Z,18.77
2019-02-26T10:27:05.984Z,20.40
2019-02-26T10:29:47.541Z,20.60
2019-02-26T10:32:32.694Z,22.73
2019-02-26T10:35:15.926Z,19.62
2019-02-26T10:37:57.128Z,19.35
2019-02-26T10:40:50.763Z,18.50
2019-02-26T10:43:21.463Z,18.17
2019-02-26T10:46:02.880Z,19.15
2019-02-26T10:48:45.658Z,19.40
2019-02-26T10:51:27.272Z,21.57
2019-02-26T10:54:11.749Z,20.25
2019-02-26T10:56:51.376Z,20.60
2019-02-26T10:59:32.929Z,18.82
2019-02-26T11:02:15.185Z,19.15
2019-02-26T11:04:56.895Z,18.85
2019-02-26T11:07:40.078Z,18.67
2019-02-26T11:10:22.709Z,19.40
2019-02-26T11:13:03.094Z,19.77
2019-02-26T11:15:44.114Z,19.55
2019-02-26T11:18:25.519Z,21.10
2019-02-26T11:21:07.118Z,19.87
2019-02-26T11:23:48.663Z,19.67
2019-02-26T11:26:35.183Z,18.02
2019-02-26T11:29:16.009Z,20.12
2019-02-26T11:31:56.762Z,22.58
2019-02-26T11:34:38.307Z,21.25
2019-02-26T11:37:20.327Z,21.55
2019-02-26T11:40:02.871Z,23.55
2019-02-26T11:42:46.709Z,22.30
2019-02-26T11:45:26.687Z,22.62
2019-02-26T11:48:17.415Z,22.00
2019-02-26T11:54:04.968Z,26.02
2019-02-26T11:56:55.180Z,21.75
2019-02-26T11:59:43.750Z,22.77
2019-02-26T12:02:44.117Z,22.15
2019-02-26T12:08:32.093Z,21.80
2019-02-26T12:11:23.102Z,23.75
2019-02-26T12:14:13.764Z,23.60
2019-02-26T12:16:54.367Z,22.70
2019-02-26T12:19:37.139Z,21.13
2019-02-26T12:22:20.337Z,22.97
2019-02-26T12:25:02.697Z,21.67
2019-02-26T12:27:45.626Z,21.17
2019-02-26T12:30:27.194Z,21.67
2019-02-26T12:33:09.832Z,19.70
2019-02-26T12:35:50.476Z,16.93
2019-02-26T12:38:31.541Z,15.83
2019-02-26T12:41:15.586Z,20.17
2019-02-26T12:43:58.790Z,20.33
2019-02-26T12:46:38.040Z,18.60
2019-02-26T12:49:28.960Z,19.30
2019-02-26T12:52:18.745Z,18.70
2019-02-26T12:55:10.404Z,20.27
2019-02-26T12:57:59.464Z,18.17
2019-02-26T13:09:51.998Z,19.07
2019-02-26T13:12:39.541Z,19.63
2019-02-26T13:15:20.486Z,16.83
2019-02-26T13:18:02.258Z,16.03
2019-02-26T13:20:43.260Z,17.30
2019-02-26T13:23:24.503Z,17.63
2019-02-26T13:26:08.418Z,16.17
2019-02-26T13:28:53.011Z,15.87
2019-02-26T13:31:33.958Z,15.20
2019-02-26T13:34:14.229Z,16.00
2019-02-26T13:36:56.797Z,15.60
2019-02-26T13:39:41.218Z,16.23
2019-02-26T13:42:20.869Z,17.50
2019-02-26T13:45:02.368Z,16.23
2019-02-26T13:47:43.949Z,14.40
2019-02-26T13:50:25.511Z,14.80
2019-02-26T13:53:07.236Z,15.67
2019-02-26T13:55:48.577Z,17.67
2019-02-26T13:58:29.380Z,16.60
2019-02-26T14:01:10.617Z,17.20
2019-02-26T14:03:52.172Z,17.50
2019-02-26T14:06:32.893Z,17.07
2019-02-26T14:09:12.856Z,15.97
2019-02-26T14:12:01.524Z,14.37
2019-02-26T14:14:51.828Z,17.20
2019-02-26T14:17:40.736Z,15.27
2019-02-26T14:20:31.274Z,14.77
2019-02-26T14:23:20.497Z,12.40
2019-02-26T14:29:07.920Z,12.73
2019-02-26T14:31:56.643Z,12.00
2019-02-26T14:34:59.639Z,12.93
2019-02-26T14:40:45.314Z,12.20
2019-02-26T14:52:47.396Z,10.70
2019-02-26T14:55:37.593Z,10.50
2019-02-26T14:58:13.875Z,11.23
2019-02-26T15:01:14.210Z,10.43
2019-02-26T15:07:02.011Z,11.00
2019-02-26T15:15:58.027Z,11.70
2019-02-26T15:28:04.742Z,13.90
2019-02-26T15:36:45.613Z,11.80
2019-02-26T15:42:56.309Z,10.53
2019-02-26T15:51:38.547Z,12.30
2019-02-26T15:54:27.898Z,13.00
2019-02-26T15:57:18.184Z,11.97
2019-02-26T16:00:26.155Z,12.70
2019-02-26T16:03:14.818Z,14.27
2019-02-26T16:05:56.102Z,15.00
2019-02-26T16:08:38.618Z,15.27
2019-02-26T16:11:19.976Z,17.63
2019-02-26T16:14:01.404Z,16.30
2019-02-26T16:16:43.008Z,15.47
2019-02-26T16:19:24.342Z,16.60
2019-02-26T16:22:05.053Z,14.80
2019-02-26T16:24:45.953Z,15.90
2019-02-26T16:27:27.748Z,15.50
2019-02-26T16:30:09.065Z,14.37
2019-02-26T16:32:50.613Z,14.10
2019-02-26T16:35:31.753Z,15.10
2019-02-26T16:38:14.114Z,15.33
2019-02-26T16:40:56.171Z,14.50
2019-02-26T16:43:38.024Z,22.90
2019-02-26T16:46:19.574Z,17.47
2019-02-26T16:49:01.042Z,15.97
2019-02-26T16:51:41.869Z,15.27
2019-02-26T16:54:23.331Z,14.30
2019-02-26T16:57:04.066Z,15.13
2019-02-26T16:59:45.577Z,15.30
2019-02-26T17:02:27.487Z,13.38
2019-02-26T17:05:08.758Z,13.20
2019-02-26T17:07:50.249Z,15.88
2019-02-26T17:10:31.320Z,14.15
2019-02-26T17:13:12.538Z,15.40
2019-02-26T17:15:54.063Z,15.48
2019-02-26T17:18:35.539Z,14.93
2019-02-26T17:21:17.058Z,19.92
2019-02-26T17:23:59.100Z,19.75
2019-02-26T17:26:40.213Z,20.25
2019-02-26T17:29:21.584Z,21.35
2019-02-26T17:32:04.701Z,19.70
2019-02-26T17:34:45.453Z,19.82
2019-02-26T17:37:26.912Z,18.90
2019-02-26T17:40:08.185Z,16.12
2019-02-26T17:42:51.266Z,16.87
2019-02-26T17:45:34.938Z,16.35
2019-02-26T17:48:16.137Z,16.80
2019-02-26T17:50:57.975Z,17.40
2019-02-26T17:53:39.321Z,18.32
2019-02-26T17:56:20.961Z,19.45
2019-02-26T17:59:02.572Z,21.77
2019-02-26T18:01:43.668Z,18.60
2019-02-26T18:04:23.702Z,17.57
2019-02-26T18:07:12.448Z,19.77
2019-02-26T18:13:10.709Z,19.20
2019-02-26T18:19:12.411Z,21.35
2019-02-26T18:22:14.937Z,20.00
2019-02-26T18:30:46.272Z,19.98
2019-02-26T18:36:58.442Z,15.90
2019-02-26T18:42:43.900Z,15.20
2019-02-26T18:45:33.241Z,17.55
2019-02-26T18:51:20.623Z,23.45
2019-02-26T18:54:09.245Z,20.17
2019-02-26T18:57:11.606Z,17.62
2019-02-26T19:02:57.585Z,15.95
2019-02-26T19:05:39.351Z,13.22
2019-02-26T19:08:20.932Z,12.88
2019-02-26T19:11:02.712Z,15.10
2019-02-26T19:13:44.033Z,14.38
2019-02-26T19:16:25.373Z,14.73
2019-02-26T19:19:09.147Z,14.45
2019-02-26T19:21:51.706Z,13.93
2019-02-26T19:24:35.618Z,14.15
2019-02-26T19:27:16.868Z,13.60
2019-02-26T19:29:58.009Z,12.60
2019-02-26T19:32:39.501Z,12.20
2019-02-26T19:35:21.056Z,14.03
2019-02-26T19:38:02.479Z,12.85
2019-02-26T19:40:44.263Z,14.15
2019-02-26T19:43:26.045Z,13.90
2019-02-26T19:46:07.739Z,13.35
2019-02-26T19:48:49.218Z,13.70
2019-02-26T19:51:30.833Z,13.58
2019-02-26T19:54:10.596Z,14.20
2019-02-26T19:56:59.245Z,16.25
2019-02-26T19:59:47.871Z,20.23
2019-02-26T20:02:36.512Z,20.25
2019-02-26T20:05:25.191Z,18.70
2019-02-26T20:11:24.840Z,17.42
2019-02-26T20:14:04.888Z,15.50
2019-02-26T20:16:53.733Z,14.50
2019-02-26T20:19:42.524Z,15.55
2019-02-26T20:28:47.958Z,15.88
2019-02-26T20:34:35.874Z,17.85
2019-02-26T20:43:29.087Z,16.77
2019-02-26T20:46:17.839Z,16.23
2019-02-26T20:49:06.512Z,16.00
2019-02-26T20:57:56.856Z,17.40
2019-02-26T21:00:49.826Z,17.80
2019-02-26T21:03:26.126Z,18.32
2019-02-26T21:06:15.615Z,17.40
2019-02-26T21:12:46.110Z,17.85
2019-02-26T21:15:38.713Z,17.67
2019-02-26T21:18:15.225Z,16.27
2019-02-26T21:21:04.039Z,16.10
2019-02-26T21:23:53.156Z,16.62
2019-02-26T21:26:41.895Z,17.23
2019-02-26T21:29:44.520Z,16.57
2019-02-26T21:32:33.455Z,16.60
2019-02-26T21:41:06.973Z,17.50
2019-02-26T21:50:04.020Z,16.85
2019-02-26T21:53:04.386Z,18.23
2019-02-26T21:55:44.508Z,18.35
2019-02-26T21:58:33.473Z,17.40
2019-02-26T22:01:22.139Z,18.10
2019-02-26T22:07:06.674Z,16.25
2019-02-26T22:12:51.140Z,17.95
2019-02-26T22:15:51.739Z,17.87
2019-02-26T22:18:33.984Z,17.00
2019-02-26T22:21:20.425Z,16.67
2019-02-26T22:24:09.782Z,18.05
2019-02-26T22:27:00.300Z,16.80
2019-02-26T22:33:11.093Z,16.87
2019-02-26T22:39:16.532Z,16.25
2019-02-26T22:42:19.315Z,16.55
2019-02-26T22:47:51.069Z,16.95
2019-02-26T22:50:39.676Z,16.65
2019-02-26T22:53:40.025Z,17.12
2019-02-26T22:56:11.319Z,19.92
2019-02-26T22:58:52.875Z,16.05
2019-02-26T23:01:37.416Z,16.93
2019-02-26T23:04:19.779Z,16.95
2019-02-26T23:07:04.436Z,16.62
2019-02-26T23:09:43.875Z,17.27
2019-02-26T23:12:24.963Z,16.97
2019-02-26T23:15:04.908Z,17.23
2019-02-26T23:17:58.200Z,16.95
2019-02-26T23:20:57.995Z,16.17
2019-02-26T23:23:34.514Z,16.40
2019-02-26T23:32:55.723Z,15.95
2019-02-26T23:35:44.339Z,18.00
2019-02-26T23:38:32.973Z,17.20
2019-02-26T23:41:21.913Z,16.57
2019-02-26T23:44:21.957Z,17.00
2019-02-26T23:49:56.024Z,17.10
2019-02-26T23:53:01.183Z,18.30
2019-02-26T23:55:35.772Z,18.15
2019-02-26T23:58:17.044Z,20.92
